Time;durP1;ratioP1;P1;durP2;ratioP2;P2;SDS_P1;SDS_P2;PMS_P1;PMS_P2;Temp;Humidity;BMP_temperature;BMP_pressure;BME280_temperature;BME280_humidity;BME280_pressure;Samples;Min_cycle;Max_cycle;Signal;HPM_P1;HPM_P2
2023/04/28 00:01:15;;;;;;;5.90;2.70;;;15.30;54.50;;;;;;5017149;28;20589;-75
2023/04/28 00:03:41;;;;;;;6.30;2.23;;;15.30;54.10;;;;;;5021516;28;20177;-75
2023/04/28 00:06:07;;;;;;;2.93;2.13;;;15.30;54.50;;;;;;5019384;28;20191;-75
2023/04/28 00:08:33;;;;;;;3.47;2.23;;;15.30;54.60;;;;;;5019551;28;20620;-75
2023/04/28 00:10:59;;;;;;;5.40;2.40;;;15.30;54.20;;;;;;5021753;28;20593;-75
2023/04/28 00:13:25;;;;;;;4.50;2.63;;;15.30;54.60;;;;;;5012067;28;20584;-76
2023/04/28 00:15:52;;;;;;;6.33;2.27;;;15.30;55.20;;;;;;5022143;28;20595;-75
2023/04/28 00:18:21;;;;;;;2.73;1.87;;;15.30;54.70;;;;;;5029932;28;20635;-76
2023/04/28 00:20:47;;;;;;;5.40;2.07;;;15.30;54.70;;;;;;5027657;28;20569;-76
2023/04/28 00:23:12;;;;;;;2.83;1.73;;;15.30;56.10;;;;;;5020845;28;21152;-76
2023/04/28 00:25:38;;;;;;;3.70;2.30;;;15.20;55.60;;;;;;5011314;28;20171;-76
2023/04/28 00:28:04;;;;;;;5.70;2.97;;;15.30;55.00;;;;;;5009812;28;20769;-75
2023/04/28 00:30:30;;;;;;;4.63;2.37;;;15.20;57.20;;;;;;5010930;28;20645;-75
2023/04/28 00:32:55;;;;;;;3.37;2.40;;;15.20;55.70;;;;;;5010854;28;20178;-76
2023/04/28 00:35:21;;;;;;;4.60;2.43;;;15.20;57.10;;;;;;5010248;28;20580;-75
2023/04/28 00:37:47;;;;;;;3.10;1.93;;;15.20;56.20;;;;;;5010263;28;20202;-75
2023/04/28 00:40:13;;;;;;;2.50;2.23;;;15.20;56.60;;;;;;5011325;28;20985;-75
2023/04/28 00:42:39;;;;;;;5.70;3.07;;;15.20;56.10;;;;;;5011001;28;21141;-75
2023/04/28 00:45:06;;;;;;;3.10;2.10;;;15.20;57.00;;;;;;5011198;28;20172;-75
2023/04/28 00:47:36;;;;;;;4.60;2.30;;;15.20;56.30;;;;;;5010929;28;20190;-75
2023/04/28 00:50:05;;;;;;;6.70;2.63;;;15.10;57.10;;;;;;5009395;28;20617;-75
2023/04/28 00:52:31;;;;;;;4.10;2.53;;;15.10;58.00;;;;;;5017391;28;21108;-75
2023/04/28 00:54:56;;;;;;;2.93;1.77;;;15.10;56.90;;;;;;5021612;28;20700;-75
2023/04/28 00:57:22;;;;;;;5.30;2.80;;;15.10;57.30;;;;;;4993238;28;20213;-76
2023/04/28 00:59:48;;;;;;;5.37;2.43;;;15.00;58.40;;;;;;5007093;28;20201;-75
2023/04/28 01:02:16;;;;;;;4.10;2.13;;;15.00;57.80;;;;;;5019670;28;20179;-75
2023/04/28 01:04:46;;;;;;;3.88;2.13;;;15.00;57.30;;;;;;5010719;28;20627;-75
2023/04/28 01:07:14;;;;;;;4.37;2.17;;;15.10;58.20;;;;;;4993283;28;20174;-75
2023/04/28 01:09:40;;;;;;;3.80;2.15;;;15.10;57.80;;;;;;5009880;28;20605;-75
2023/04/28 01:12:07;;;;;;;4.80;2.27;;;15.00;58.60;;;;;;4985233;28;20175;-75
2023/04/28 01:14:41;;;;;;;5.97;2.67;;;15.00;58.60;;;;;;5008865;28;20603;-75
2023/04/28 01:17:07;;;;;;;4.20;2.10;;;14.90;58.90;;;;;;4998041;28;20625;-76
2023/04/28 01:19:33;;;;;;;5.30;2.60;;;14.80;58.40;;;;;;5013988;28;20606;-75
2023/04/28 01:21:59;;;;;;;3.60;2.13;;;14.70;58.80;;;;;;4996285;28;21129;-75
2023/04/28 01:24:25;;;;;;;5.20;2.30;;;14.50;59.40;;;;;;5013600;28;20183;-75
2023/04/28 01:26:51;;;;;;;4.33;2.67;;;14.40;61.80;;;;;;4996469;28;20175;-75
2023/04/28 01:29:17;;;;;;;3.80;2.70;;;14.20;65.20;;;;;;5013009;28;20946;-75
2023/04/28 01:31:43;;;;;;;4.00;3.10;;;14.10;64.40;;;;;;4990210;28;20678;-75
2023/04/28 01:34:09;;;;;;;4.30;2.42;;;14.00;66.60;;;;;;5013130;28;20673;-75
2023/04/28 01:36:35;;;;;;;3.78;2.50;;;13.90;66.20;;;;;;4996419;28;20564;-76
2023/04/28 01:39:01;;;;;;;4.07;2.30;;;13.80;68.80;;;;;;4996565;28;20685;-75
2023/04/28 01:41:27;;;;;;;3.80;2.50;;;13.60;69.80;;;;;;5013166;28;20214;-75
2023/04/28 01:43:53;;;;;;;4.07;2.90;;;13.60;72.20;;;;;;4996476;28;20229;-75
2023/04/28 01:46:18;;;;;;;4.70;2.80;;;13.50;71.60;;;;;;4996502;28;20589;-75
2023/04/28 01:48:44;;;;;;;3.70;2.20;;;13.40;73.30;;;;;;4996111;28;20253;-75
2023/04/28 01:51:11;;;;;;;5.47;2.92;;;13.40;75.80;;;;;;5012789;28;20552;-75
2023/04/28 01:53:37;;;;;;;4.68;3.60;;;13.40;77.00;;;;;;5014158;28;20167;-75
2023/04/28 01:56:03;;;;;;;4.63;2.60;;;13.40;78.20;;;;;;4979633;28;20185;-75
2023/04/28 01:58:29;;;;;;;5.63;2.67;;;13.30;79.60;;;;;;4996620;28;20190;-75
2023/04/28 02:00:55;;;;;;;3.75;2.45;;;13.30;81.00;;;;;;5012302;28;21088;-75
2023/04/28 02:03:21;;;;;;;3.65;3.05;;;13.30;82.20;;;;;;5012921;28;20167;-75
2023/04/28 02:05:47;;;;;;;5.20;2.60;;;13.20;83.20;;;;;;5032852;22;20249;-83
2023/04/28 02:08:14;;;;;;;4.80;2.42;;;13.20;84.80;;;;;;5032374;28;20218;-82
2023/04/28 02:10:40;;;;;;;3.93;2.23;;;13.20;85.90;;;;;;5016165;28;20565;-83
2023/04/28 02:13:06;;;;;;;4.40;3.10;;;13.20;89.30;;;;;;5032181;28;20270;-83
2023/04/28 02:15:31;;;;;;;5.57;3.33;;;13.20;89.70;;;;;;5032365;28;20648;-83
2023/04/28 02:17:57;;;;;;;6.30;3.30;;;13.20;90.60;;;;;;5015744;28;20201;-84
2023/04/28 02:20:23;;;;;;;5.83;3.00;;;13.20;91.50;;;;;;5037860;28;20216;-83
2023/04/28 02:22:49;;;;;;;3.30;2.30;;;13.20;92.00;;;;;;5015157;28;20192;-84
2023/04/28 02:25:15;;;;;;;3.83;3.10;;;13.20;92.30;;;;;;5032450;28;20583;-82
2023/04/28 02:27:41;;;;;;;5.00;3.47;;;13.30;92.90;;;;;;5031631;28;20576;-83
2023/04/28 02:30:07;;;;;;;4.20;2.90;;;13.30;94.20;;;;;;5032294;28;20185;-83
2023/04/28 02:32:33;;;;;;;5.75;3.10;;;13.30;94.40;;;;;;5015478;28;20208;-83
2023/04/28 02:34:58;;;;;;;4.50;2.47;;;13.20;94.80;;;;;;5015207;28;20182;-83
2023/04/28 02:37:25;;;;;;;7.40;4.43;;;13.30;95.30;;;;;;5015489;28;20206;-82
2023/04/28 02:39:51;;;;;;;7.43;4.00;;;13.30;95.70;;;;;;5033125;28;20173;-83
2023/04/28 02:42:17;;;;;;;5.23;3.63;;;13.20;96.90;;;;;;5015509;28;20177;-83
2023/04/28 02:44:42;;;;;;;5.50;4.00;;;13.20;96.60;;;;;;5031792;28;20567;-83
2023/04/28 02:47:08;;;;;;;4.33;3.03;;;13.20;97.70;;;;;;5031778;28;20612;-83
2023/04/28 02:49:34;;;;;;;6.03;3.03;;;13.20;97.70;;;;;;4998874;28;20182;-83
2023/04/28 02:52:00;;;;;;;4.67;2.87;;;13.20;97.80;;;;;;5015381;28;20675;-83
2023/04/28 02:54:27;;;;;;;5.57;3.50;;;13.20;98.20;;;;;;5015368;28;20364;-84
2023/04/28 02:56:54;;;;;;;4.63;2.47;;;13.20;99.60;;;;;;5018731;28;20202;-84
2023/04/28 02:59:20;;;;;;;6.00;3.20;;;13.10;99.10;;;;;;5032646;28;20273;-84
2023/04/28 03:01:47;;;;;;;5.20;3.00;;;13.10;99.50;;;;;;5014809;28;20177;-83
2023/04/28 03:04:13;;;;;;;6.60;3.65;;;13.20;99.70;;;;;;5015880;28;20212;-83
2023/04/28 03:06:39;;;;;;;4.53;3.55;;;13.10;99.90;;;;;;5014701;28;20201;-83
2023/04/28 03:09:05;;;;;;;5.28;3.40;;;13.20;99.90;;;;;;5031831;28;20188;-83
2023/04/28 03:11:32;;;;;;;6.25;2.88;;;13.20;99.90;;;;;;5031267;28;20205;-83
2023/04/28 03:13:58;;;;;;;5.77;4.00;;;13.20;99.90;;;;;;5014756;28;20209;-83
2023/04/28 03:16:23;;;;;;;3.83;3.40;;;13.10;99.90;;;;;;5014607;28;21049;-83
2023/04/28 03:18:49;;;;;;;7.50;3.40;;;13.10;99.90;;;;;;5014469;28;20292;-83
2023/04/28 03:21:15;;;;;;;6.93;3.27;;;13.10;99.90;;;;;;5032268;28;20684;-83
2023/04/28 03:23:41;;;;;;;7.67;2.87;;;13.10;99.90;;;;;;5014080;28;20582;-83
2023/04/28 03:26:07;;;;;;;4.15;2.78;;;13.10;99.90;;;;;;5031148;28;20993;-83
2023/04/28 03:28:33;;;;;;;3.90;3.20;;;13.10;99.90;;;;;;5014440;28;20209;-84
2023/04/28 03:30:59;;;;;;;4.50;3.33;;;13.10;99.90;;;;;;5030885;28;20209;-84
2023/04/28 03:33:25;;;;;;;4.47;3.20;;;13.10;99.90;;;;;;5030984;28;20201;-84
2023/04/28 03:35:53;;;;;;;3.13;2.25;;;13.20;99.90;;;;;;5033013;28;20236;-84
2023/04/28 03:38:19;;;;;;;7.13;3.28;;;13.20;99.90;;;;;;5030233;28;20289;-84
2023/04/28 03:40:45;;;;;;;5.22;3.08;;;13.20;99.90;;;;;;5014087;28;20274;-85
2023/04/28 03:43:11;;;;;;;6.17;3.13;;;13.10;99.90;;;;;;5030763;28;20220;-84
2023/04/28 03:46:00;;;;;;;4.25;2.45;;;13.10;99.90;;;;;;5020655;28;20212;-84
2023/04/28 03:48:27;;;;;;;5.75;3.55;;;13.10;99.90;;;;;;5030779;28;20185;-84
2023/04/28 03:50:52;;;;;;;5.87;3.30;;;13.00;99.90;;;;;;5021657;28;20177;-84
2023/04/28 03:53:18;;;;;;;4.73;3.30;;;12.90;99.90;;;;;;5049675;28;20173;-83
2023/04/28 03:55:44;;;;;;;5.07;4.37;;;12.90;99.90;;;;;;5049858;28;20237;-83
2023/04/28 03:58:11;;;;;;;5.88;3.10;;;12.80;99.90;;;;;;5042544;28;20236;-83
2023/04/28 04:00:36;;;;;;;3.97;3.40;;;12.80;99.90;;;;;;5013939;28;20173;-83
2023/04/28 04:03:02;;;;;;;5.27;4.40;;;12.70;99.90;;;;;;5013235;28;20579;-83
2023/04/28 04:05:28;;;;;;;11.27;4.50;;;12.60;99.90;;;;;;5030109;28;20209;-82
2023/04/28 04:07:54;;;;;;;6.50;4.00;;;12.50;99.90;;;;;;5029803;28;20557;-82
2023/04/28 04:10:19;;;;;;;7.30;3.63;;;12.40;99.90;;;;;;5030509;28;20941;-82
2023/04/28 04:12:46;;;;;;;6.93;4.30;;;12.40;99.90;;;;;;5017002;28;20184;-82
2023/04/28 04:15:12;;;;;;;5.43;3.67;;;12.30;99.90;;;;;;5013078;28;20628;-82
2023/04/28 04:17:39;;;;;;;4.82;3.45;;;12.30;99.90;;;;;;4996694;28;20731;-81
2023/04/28 04:20:06;;;;;;;5.45;4.18;;;12.30;99.90;;;;;;5030241;28;20177;-81
2023/04/28 04:22:32;;;;;;;5.80;4.38;;;12.20;99.90;;;;;;5029609;28;20181;-82
2023/04/28 04:24:58;;;;;;;5.10;3.60;;;12.20;99.90;;;;;;5029480;28;20181;-82
2023/04/28 04:27:24;;;;;;;5.60;3.40;;;12.20;99.90;;;;;;5029574;28;20185;-82
2023/04/28 04:29:50;;;;;;;3.55;3.13;;;12.30;99.90;;;;;;5029628;28;20231;-83
2023/04/28 04:32:16;;;;;;;4.33;3.93;;;12.30;99.90;;;;;;5029867;28;20269;-82
2023/04/28 04:34:42;;;;;;;4.33;3.40;;;12.30;99.90;;;;;;5013087;28;20710;-82
2023/04/28 04:37:09;;;;;;;7.00;3.83;;;12.30;99.90;;;;;;5029488;28;20228;-83
2023/04/28 04:39:39;;;;;;;4.38;3.83;;;12.30;99.90;;;;;;5013209;28;20226;-83
2023/04/28 04:42:05;;;;;;;5.43;3.90;;;12.30;99.90;;;;;;5030040;28;20672;-83
2023/04/28 04:44:38;;;;;;;4.45;3.63;;;12.30;99.90;;;;;;5030087;28;20645;-84
2023/04/28 04:47:08;;;;;;;5.45;4.55;;;12.30;99.90;;;;;;5012810;28;20190;-83
2023/04/28 04:49:35;;;;;;;7.43;3.58;;;12.30;99.90;;;;;;5019301;28;20177;-84
2023/04/28 04:52:02;;;;;;;6.97;4.03;;;12.30;99.90;;;;;;5033366;28;20177;-83
2023/04/28 04:54:29;;;;;;;7.70;4.60;;;12.30;99.90;;;;;;5034097;28;20181;-82
2023/04/28 04:56:57;;;;;;;6.28;4.13;;;12.40;99.90;;;;;;5016519;28;20201;-83
2023/04/28 04:59:42;;;;;;;4.75;4.35;;;12.40;99.90;;;;;;5035195;28;20526;-83
2023/04/28 05:02:13;;;;;;;7.03;3.10;;;12.40;99.90;;;;;;5033992;28;20181;-83
2023/04/28 05:04:38;;;;;;;5.27;3.80;;;12.50;99.90;;;;;;5033746;28;20173;-83
2023/04/28 05:07:06;;;;;;;7.47;4.70;;;12.50;99.90;;;;;;5016225;28;21241;-84
2023/04/28 05:09:32;;;;;;;5.55;3.20;;;12.50;99.90;;;;;;5033160;28;20177;-84
2023/04/28 05:11:59;;;;;;;5.97;4.00;;;12.60;99.90;;;;;;5016756;28;20176;-84
2023/04/28 05:14:25;;;;;;;5.43;4.80;;;12.60;99.90;;;;;;5033379;28;20181;-84
2023/04/28 05:16:51;;;;;;;5.05;3.30;;;12.60;99.90;;;;;;5033138;28;20635;-84
2023/04/28 05:19:32;;;;;;;5.95;3.83;;;12.70;99.90;;;;;;5016531;28;20179;-84
2023/04/28 05:21:59;;;;;;;5.77;4.20;;;12.70;99.90;;;;;;5016560;28;20632;-83
2023/04/28 05:24:25;;;;;;;5.22;4.15;;;12.70;99.90;;;;;;5033449;28;20201;-83
2023/04/28 05:26:52;;;;;;;7.60;4.20;;;12.70;99.90;;;;;;5038043;28;20241;-83
2023/04/28 05:29:20;;;;;;;5.68;4.80;;;12.70;99.90;;;;;;5016652;28;20182;-83
2023/04/28 05:31:46;;;;;;;5.32;4.20;;;12.70;99.90;;;;;;5016765;28;20192;-83
2023/04/28 05:34:12;;;;;;;9.77;5.47;;;12.80;99.90;;;;;;5016678;28;20660;-83
2023/04/28 05:36:39;;;;;;;3.80;3.40;;;12.80;99.90;;;;;;5032552;28;20279;-84
2023/04/28 05:39:07;;;;;;;7.38;3.90;;;12.80;99.90;;;;;;5016862;28;20185;-84
2023/04/28 05:41:35;;;;;;;4.83;4.40;;;12.70;99.90;;;;;;5032501;28;20169;-84
2023/04/28 05:44:01;;;;;;;5.93;4.75;;;12.80;99.90;;;;;;5033162;28;21005;-84
2023/04/28 05:46:28;;;;;;;4.57;3.60;;;12.80;99.90;;;;;;4999417;28;20201;-84
2023/04/28 05:48:53;;;;;;;7.40;4.63;;;12.80;99.90;;;;;;5016646;28;20624;-84
2023/04/28 05:51:21;;;;;;;5.50;4.22;;;12.70;99.90;;;;;;5032529;28;20180;-77
2023/04/28 05:53:47;;;;;;;7.82;4.00;;;12.70;99.90;;;;;;5016299;28;20264;-76
2023/04/28 05:56:15;;;;;;;6.18;4.43;;;12.70;99.90;;;;;;5015796;28;20236;-77
2023/04/28 05:58:46;;;;;;;4.72;4.30;;;12.70;99.90;;;;;;5015572;28;20170;-77
2023/04/28 06:01:12;;;;;;;5.95;4.55;;;12.70;99.90;;;;;;5029493;28;20248;-77
2023/04/28 06:03:40;;;;;;;9.20;4.40;;;12.70;99.90;;;;;;5031744;28;20256;-77
2023/04/28 06:06:07;;;;;;;3.47;3.15;;;12.70;99.90;;;;;;5034314;28;20209;-77
2023/04/28 06:08:33;;;;;;;8.13;3.25;;;12.80;99.90;;;;;;5022112;28;20201;-78
2023/04/28 06:10:59;;;;;;;6.00;4.43;;;12.90;99.90;;;;;;4999719;28;20201;-78
2023/04/28 06:13:24;;;;;;;6.87;4.20;;;12.90;99.90;;;;;;5015072;28;20642;-77
2023/04/28 06:15:50;;;;;;;8.00;5.37;;;13.00;99.90;;;;;;5015771;28;20638;-77
2023/04/28 06:18:16;;;;;;;7.22;5.20;;;12.90;99.90;;;;;;5032305;28;20209;-78
2023/04/28 06:20:42;;;;;;;5.50;4.10;;;13.00;99.90;;;;;;5031864;28;20166;-77
2023/04/28 06:23:08;;;;;;;6.43;3.72;;;13.00;99.90;;;;;;5015610;28;20220;-77
2023/04/28 06:25:40;;;;;;;8.98;4.22;;;13.00;99.90;;;;;;5031403;28;20224;-77
2023/04/28 06:28:06;;;;;;;7.47;3.80;;;13.10;99.90;;;;;;5044216;28;20173;-76
2023/04/28 06:30:33;;;;;;;5.13;4.50;;;13.10;99.90;;;;;;5048249;28;20592;-77
2023/04/28 06:33:02;;;;;;;8.10;4.28;;;13.10;99.90;;;;;;5048592;28;20224;-77
2023/04/28 06:35:28;;;;;;;6.13;4.57;;;13.00;99.90;;;;;;5031751;28;20618;-77
2023/04/28 06:37:54;;;;;;;8.73;4.37;;;13.10;99.90;;;;;;5015117;28;20205;-77
2023/04/28 06:40:20;;;;;;;5.15;4.35;;;13.10;99.90;;;;;;5015202;28;20584;-77
2023/04/28 06:42:51;;;;;;;4.97;4.28;;;13.10;99.90;;;;;;5047464;28;20707;-77
2023/04/28 06:45:24;;;;;;;4.43;3.80;;;13.20;99.90;;;;;;5031592;28;20301;-76
2023/04/28 06:47:51;;;;;;;5.30;4.07;;;13.30;99.90;;;;;;5030890;28;20273;-77
2023/04/28 06:50:16;;;;;;;6.72;4.60;;;13.40;99.90;;;;;;5032600;28;20204;-77
2023/04/28 06:52:42;;;;;;;6.60;4.10;;;13.40;99.90;;;;;;5014638;28;20177;-77
2023/04/28 06:55:08;;;;;;;5.67;4.70;;;13.40;99.90;;;;;;5015142;28;20170;-77
2023/04/28 06:57:34;;;;;;;4.82;3.88;;;13.40;99.90;;;;;;5030692;28;20233;-77
2023/04/28 07:00:01;;;;;;;7.25;4.63;;;13.50;99.90;;;;;;5048155;28;20181;-77
2023/04/28 07:02:27;;;;;;;6.43;4.80;;;13.60;99.90;;;;;;5032212;28;20181;-78
2023/04/28 07:04:53;;;;;;;5.27;4.10;;;13.70;99.90;;;;;;5030699;28;20173;-77
2023/04/28 07:07:18;;;;;;;5.07;3.70;;;13.80;99.90;;;;;;5030956;28;20580;-77
2023/04/28 07:09:44;;;;;;;5.20;4.63;;;13.90;99.90;;;;;;5030988;28;21108;-77
2023/04/28 07:12:10;;;;;;;7.67;3.60;;;14.00;99.90;;;;;;5031943;28;20177;-77
2023/04/28 07:14:35;;;;;;;5.50;3.90;;;14.00;99.90;;;;;;5030402;28;20590;-77
2023/04/28 07:17:02;;;;;;;6.87;4.70;;;14.10;99.90;;;;;;5036286;28;20295;-77
2023/04/28 07:19:27;;;;;;;8.18;4.82;;;14.10;99.90;;;;;;5030836;28;20174;-77
2023/04/28 07:21:53;;;;;;;6.03;4.70;;;14.10;99.90;;;;;;5030670;28;20711;-76
2023/04/28 07:24:19;;;;;;;8.13;4.70;;;14.10;99.90;;;;;;5031060;28;20200;-77
2023/04/28 07:26:45;;;;;;;6.65;5.32;;;14.00;99.90;;;;;;5030690;28;21137;-77
2023/04/28 07:29:12;;;;;;;5.50;4.67;;;14.00;99.90;;;;;;5031145;28;20185;-77
2023/04/28 07:31:38;;;;;;;7.43;4.10;;;14.00;99.90;;;;;;5027605;28;20181;-77
2023/04/28 07:34:04;;;;;;;5.20;4.57;;;14.00;99.90;;;;;;5030133;28;20296;-77
2023/04/28 07:36:30;;;;;;;5.97;4.70;;;14.00;99.90;;;;;;5029338;28;20209;-78
2023/04/28 07:38:56;;;;;;;5.33;4.83;;;14.00;99.90;;;;;;5031850;28;20177;-79
2023/04/28 07:41:22;;;;;;;5.63;4.90;;;14.10;99.90;;;;;;5029827;28;20593;-79
2023/04/28 07:43:48;;;;;;;5.97;4.10;;;14.20;99.90;;;;;;5014249;28;20543;-78
2023/04/28 07:46:14;;;;;;;4.40;4.00;;;14.40;99.90;;;;;;5014774;28;20620;-77
2023/04/28 07:48:42;;;;;;;5.33;4.40;;;14.50;99.90;;;;;;5013186;28;20657;-78
2023/04/28 07:51:08;;;;;;;4.67;3.83;;;14.60;99.90;;;;;;5031824;28;20259;-77
2023/04/28 07:53:35;;;;;;;5.63;4.53;;;14.90;99.90;;;;;;5014456;28;20647;-77
2023/04/28 07:56:01;;;;;;;3.60;3.27;;;15.10;99.90;;;;;;5029803;28;20193;-77
2023/04/28 07:58:27;;;;;;;6.67;4.90;;;15.30;99.90;;;;;;5029271;28;21541;-77
2023/04/28 08:00:53;;;;;;;5.47;4.90;;;15.40;99.90;;;;;;5030100;28;20277;-78
2023/04/28 08:03:18;;;;;;;5.10;4.60;;;15.40;99.90;;;;;;5029752;28;20671;-78
2023/04/28 08:05:44;;;;;;;7.07;4.33;;;15.50;99.90;;;;;;5028984;28;20279;-77
2023/04/28 08:08:10;;;;;;;4.93;4.23;;;15.70;99.90;;;;;;5031543;28;20542;-78
2023/04/28 08:10:39;;;;;;;4.27;3.87;;;15.80;99.90;;;;;;5012965;28;20584;-78
2023/04/28 08:13:05;;;;;;;5.90;5.30;;;16.00;99.90;;;;;;5031139;28;20257;-78
2023/04/28 08:15:30;;;;;;;5.00;4.30;;;16.20;99.90;;;;;;5030597;28;20687;-77
2023/04/28 08:17:56;;;;;;;6.90;3.90;;;16.50;99.90;;;;;;5037496;28;20677;-78
2023/04/28 08:20:22;;;;;;;4.67;4.17;;;17.00;99.90;;;;;;5048634;28;20230;-78
2023/04/28 08:22:47;;;;;;;7.57;4.55;;;17.40;99.90;;;;;;5023139;28;20741;-78
2023/04/28 08:25:13;;;;;;;4.83;4.37;;;17.70;99.90;;;;;;5029665;28;20526;-78
2023/04/28 08:27:39;;;;;;;5.73;4.07;;;17.80;99.90;;;;;;5012729;28;20166;-78
2023/04/28 08:30:08;;;;;;;6.03;4.03;;;17.80;99.90;;;;;;5032503;28;20201;-78
2023/04/28 08:32:34;;;;;;;6.13;3.30;;;17.90;99.90;;;;;;5030796;28;20232;-78
2023/04/28 08:35:00;;;;;;;7.83;3.87;;;17.90;99.90;;;;;;5030998;28;21084;-78
2023/04/28 08:37:27;;;;;;;5.20;3.83;;;17.90;99.90;;;;;;5028853;28;20667;-78
2023/04/28 08:40:03;;;;;;;8.03;4.40;;;17.90;99.90;;;;;;5029546;28;20584;-78
2023/04/28 08:42:33;;;;;;;8.93;4.00;;;17.90;99.90;;;;;;5030456;28;20947;-78
2023/04/28 08:44:59;;;;;;;5.37;4.87;;;17.90;99.90;;;;;;5030799;28;21172;-78
2023/04/28 08:47:34;;;;;;;8.80;5.60;;;17.90;99.90;;;;;;5012459;28;20600;-77
2023/04/28 08:50:11;;;;;;;10.63;5.50;;;17.90;99.90;;;;;;5029027;28;20583;-78
2023/04/28 08:52:38;;;;;;;4.23;3.40;;;17.70;99.90;;;;;;5029317;28;21115;-78
2023/04/28 08:55:09;;;;;;;5.30;4.57;;;17.70;99.90;;;;;;5012212;28;20969;-78
2023/04/28 08:57:43;;;;;;;6.10;4.60;;;17.70;99.90;;;;;;5030354;28;20624;-78
2023/04/28 09:00:10;;;;;;;5.00;4.50;;;17.70;99.90;;;;;;5028875;28;20580;-78
2023/04/28 09:02:36;;;;;;;5.10;4.37;;;17.70;99.90;;;;;;5012933;28;20577;-79
2023/04/28 09:05:05;;;;;;;7.90;5.30;;;17.70;99.90;;;;;;5012486;28;20568;-79
2023/04/28 09:07:31;;;;;;;6.60;5.03;;;17.70;99.90;;;;;;5031193;28;20584;-78
2023/04/28 09:10:20;;;;;;;4.60;4.13;;;17.60;99.90;;;;;;5032195;28;20576;-78
2023/04/28 09:12:48;;;;;;;6.80;5.70;;;17.50;99.90;;;;;;5030599;28;20569;-78
2023/04/28 09:15:34;;;;;;;7.47;5.43;;;17.40;99.90;;;;;;5028490;28;20588;-78
2023/04/28 09:18:04;;;;;;;6.50;5.53;;;17.20;99.90;;;;;;5009827;28;20678;-78
2023/04/28 09:20:31;;;;;;;4.93;4.47;;;17.10;99.90;;;;;;5009200;28;20616;-78
2023/04/28 09:23:11;;;;;;;6.27;4.73;;;17.00;99.90;;;;;;5028993;28;20591;-78
2023/04/28 09:25:37;;;;;;;7.40;5.70;;;17.00;99.90;;;;;;5030378;28;20603;-78
2023/04/28 09:28:20;;;;;;;6.00;4.47;;;17.00;99.90;;;;;;5012389;28;20572;-78
2023/04/28 09:30:47;;;;;;;5.00;4.17;;;16.90;99.90;;;;;;5012665;28;20789;-78
2023/04/28 09:33:13;;;;;;;7.43;5.40;;;16.90;99.90;;;;;;5012432;28;20592;-77
2023/04/28 09:35:40;;;;;;;6.23;5.63;;;16.80;99.90;;;;;;5012407;28;21405;-77
2023/04/28 09:38:05;;;;;;;6.97;5.97;;;16.80;99.90;;;;;;5032101;28;21072;-78
2023/04/28 09:40:33;;;;;;;8.00;5.90;;;16.70;99.90;;;;;;5032795;28;20596;-79
2023/04/28 09:42:58;;;;;;;6.10;5.40;;;16.60;99.90;;;;;;5033829;28;20563;-79
2023/04/28 09:45:25;;;;;;;7.27;5.63;;;16.50;99.90;;;;;;5038031;28;20610;-79
2023/04/28 09:47:51;;;;;;;6.13;5.53;;;16.50;99.90;;;;;;5032145;28;20798;-78
2023/04/28 09:50:17;;;;;;;7.57;5.73;;;16.40;99.90;;;;;;4999652;28;20576;-77
2023/04/28 09:52:55;;;;;;;6.53;5.90;;;16.50;99.90;;;;;;5032223;28;20604;-79
2023/04/28 09:55:21;;;;;;;5.30;4.80;;;16.50;99.90;;;;;;5032179;28;20964;-80
2023/04/28 09:57:50;;;;;;;6.90;6.20;;;16.50;99.90;;;;;;5015914;28;20623;-79
2023/04/28 10:00:17;;;;;;;9.70;6.47;;;16.50;99.90;;;;;;5032003;28;20577;-79
2023/04/28 10:02:44;;;;;;;7.63;6.33;;;16.40;99.90;;;;;;5033788;28;20580;-79
2023/04/28 10:05:09;;;;;;;9.90;6.37;;;16.40;99.90;;;;;;5031691;28;20837;-79
2023/04/28 10:07:36;;;;;;;6.40;5.73;;;16.40;99.90;;;;;;5015559;28;20580;-78
2023/04/28 10:10:03;;;;;;;7.13;6.20;;;16.50;99.90;;;;;;5031099;28;20182;-78
2023/04/28 10:12:28;;;;;;;7.37;6.67;;;16.60;99.90;;;;;;5032238;28;20580;-78
2023/04/28 10:14:56;;;;;;;9.33;5.90;;;16.50;99.90;;;;;;5033022;28;20595;-78
2023/04/28 10:17:24;;;;;;;7.20;5.67;;;16.50;99.90;;;;;;5032819;28;20201;-77
2023/04/28 10:19:52;;;;;;;6.90;6.20;;;16.50;99.90;;;;;;5031970;28;20906;-78
2023/04/28 10:23:01;;;;;;;7.90;7.13;;;16.40;99.90;;;;;;5024776;28;20576;-78
2023/04/28 10:25:34;;;;;;;6.23;5.30;;;16.40;99.90;;;;;;4999057;28;20619;-77
2023/04/28 10:28:05;;;;;;;9.43;6.87;;;16.50;99.90;;;;;;5031571;28;20588;-78
2023/04/28 10:30:30;;;;;;;8.53;7.67;;;16.60;99.90;;;;;;5032076;28;20844;-77
2023/04/28 10:33:05;;;;;;;9.57;7.93;;;16.80;99.90;;;;;;5031438;28;20667;-77
2023/04/28 10:35:31;;;;;;;9.80;6.80;;;16.90;99.90;;;;;;5031867;28;20193;-77
2023/04/28 10:38:07;;;;;;;6.83;6.17;;;17.10;99.90;;;;;;5030514;28;21244;-77
2023/04/28 10:40:47;;;;;;;6.57;5.97;;;17.20;99.90;;;;;;5033049;28;20583;-78
2023/04/28 10:43:32;;;;;;;6.40;5.13;;;17.20;99.90;;;;;;5032385;28;20580;-78
2023/04/28 10:46:03;;;;;;;6.07;5.47;;;17.30;99.90;;;;;;5015009;28;20604;-79
2023/04/28 10:48:29;;;;;;;6.13;5.00;;;17.40;99.90;;;;;;5030731;28;20592;-78
2023/04/28 10:51:08;;;;;;;5.83;5.33;;;17.60;99.90;;;;;;5032893;28;21100;-78
2023/04/28 10:53:47;;;;;;;7.93;7.13;;;17.80;99.90;;;;;;5032351;28;20972;-79
2023/04/28 10:56:26;;;;;;;7.70;6.90;;;17.90;99.90;;;;;;5031309;28;20600;-79
2023/04/28 10:58:54;;;;;;;7.10;6.40;;;18.10;99.90;;;;;;5036260;28;20556;-79
2023/04/28 11:01:20;;;;;;;8.30;7.10;;;18.30;99.90;;;;;;5032578;28;20568;-79
2023/04/28 11:03:46;;;;;;;5.73;5.23;;;18.50;99.90;;;;;;5031547;28;20683;-79
2023/04/28 11:06:19;;;;;;;6.37;5.77;;;18.60;99.90;;;;;;5030468;28;20313;-78
2023/04/28 11:08:45;;;;;;;7.10;4.67;;;18.80;99.90;;;;;;5031468;28;20224;-78
2023/04/28 11:11:15;;;;;;;5.60;5.00;;;19.00;99.90;;;;;;5032049;28;20588;-79
2023/04/28 11:13:42;;;;;;;5.60;4.10;;;19.20;99.90;;;;;;5031004;28;20182;-79
2023/04/28 11:16:08;;;;;;;5.33;4.83;;;19.40;99.90;;;;;;5030459;28;20999;-79
2023/04/28 11:18:54;;;;;;;7.70;5.43;;;19.50;99.90;;;;;;5032089;28;20644;-79
2023/04/28 11:21:22;;;;;;;5.70;4.47;;;19.70;99.90;;;;;;5024499;28;20593;-79
2023/04/28 11:23:48;;;;;;;9.70;5.57;;;19.90;99.90;;;;;;5032163;28;20584;-79
2023/04/28 11:26:14;;;;;;;6.20;5.67;;;20.20;99.90;;;;;;5029911;28;20620;-79
2023/04/28 11:28:49;;;;;;;6.13;5.53;;;20.30;99.90;;;;;;5019894;28;21136;-78
2023/04/28 11:31:19;;;;;;;5.67;5.10;;;20.50;99.90;;;;;;5011012;28;20596;-79
2023/04/28 11:34:10;;;;;;;4.77;4.27;;;20.70;99.90;;;;;;5012112;28;20577;-77
2023/04/28 11:36:40;;;;;;;4.07;3.67;;;20.70;99.90;;;;;;5014554;28;20657;-78
2023/04/28 11:39:08;;;;;;;4.80;4.30;;;20.70;99.90;;;;;;5010639;28;21151;-78
2023/04/28 11:41:35;;;;;;;4.90;4.40;;;20.60;99.90;;;;;;5011063;28;20624;-78
2023/04/28 11:44:17;;;;;;;6.83;4.80;;;20.50;99.90;;;;;;5018748;28;20662;-80
2023/04/28 11:46:56;;;;;;;4.70;4.10;;;20.40;99.90;;;;;;5035178;28;20615;-78
2023/04/28 11:49:23;;;;;;;5.77;5.20;;;20.30;99.90;;;;;;5048204;28;20583;-78
2023/04/28 11:51:50;;;;;;;5.33;4.83;;;20.40;99.90;;;;;;5048499;28;20596;-78
2023/04/28 11:54:22;;;;;;;6.07;5.23;;;20.50;99.90;;;;;;5048320;28;20677;-78
2023/04/28 11:56:48;;;;;;;6.23;5.00;;;20.70;99.90;;;;;;5048203;28;20631;-77
2023/04/28 11:59:13;;;;;;;4.60;4.20;;;20.80;99.90;;;;;;5049629;28;21165;-77
2023/04/28 12:01:51;;;;;;;4.90;3.70;;;21.10;99.90;;;;;;5049241;28;20587;-77
2023/04/28 12:04:37;;;;;;;4.27;3.80;;;21.30;99.90;;;;;;5033380;28;20226;-78
2023/04/28 12:07:09;;;;;;;4.33;3.87;;;21.50;99.90;;;;;;5050101;28;21000;-78
2023/04/28 12:09:42;;;;;;;4.50;4.10;;;21.70;99.90;;;;;;5033470;28;20574;-77
2023/04/28 12:12:13;;;;;;;5.20;4.00;;;21.90;99.90;;;;;;5052660;28;20598;-76
2023/04/28 12:15:00;;;;;;;5.63;3.80;;;22.10;99.90;;;;;;5051005;28;20591;-77
2023/04/28 12:17:32;;;;;;;3.70;3.00;;;22.00;99.90;;;;;;5051091;28;20979;-77
2023/04/28 12:20:01;;;;;;;3.47;3.17;;;22.20;99.90;;;;;;5049793;28;20572;-78
2023/04/28 12:22:27;;;;;;;3.40;3.03;;;22.30;99.90;;;;;;5034887;28;20925;-78
2023/04/28 12:25:06;;;;;;;3.27;2.97;;;22.40;99.90;;;;;;5031345;28;21023;-77
2023/04/28 12:27:33;;;;;;;2.67;2.43;;;22.60;99.90;;;;;;5031133;28;20565;-78
2023/04/28 12:29:59;;;;;;;3.33;2.70;;;22.90;99.90;;;;;;5029958;28;20588;-78
2023/04/28 12:32:44;;;;;;;2.70;2.50;;;23.10;99.90;;;;;;5012950;28;20680;-78
2023/04/28 12:35:10;;;;;;;4.83;3.47;;;23.30;99.90;;;;;;5031293;28;21026;-78
2023/04/28 12:37:37;;;;;;;3.23;2.83;;;23.60;99.90;;;;;;5030442;28;20623;-78
2023/04/28 12:40:05;;;;;;;4.10;3.20;;;23.80;99.90;;;;;;5030879;28;21135;-78
2023/04/28 12:42:31;;;;;;;3.60;3.30;;;24.00;99.90;;;;;;5029044;28;20608;-78
2023/04/28 12:44:57;;;;;;;3.80;3.43;;;24.20;99.90;;;;;;5031080;28;21102;-78
2023/04/28 12:47:23;;;;;;;5.20;3.00;;;24.30;99.90;;;;;;5029411;28;20914;-78
2023/04/28 12:49:51;;;;;;;5.60;2.90;;;24.30;99.90;;;;;;5035795;28;20630;-78
2023/04/28 12:52:18;;;;;;;3.53;2.60;;;24.30;99.90;;;;;;5029332;28;20663;-78